グアム の空港の天気 - METARとTAF

グアム国際空港 ( PGUM / GUM ) - グアム ハガニア
飛行場実況気象(Metar)
観測時間07/17 18:54 ChST (07/17 08:54 UTC)
風向・風速静穏 0m/s
視程10km以上
天気現象
なし
気温28.9℃
湿度85%
気圧1008.6hPa
METARPGUM 170854Z 00000KT 10SM CLR 29/26 A2981 RMK AO2 SLP086 T02890261 53010
過去の天気等 Google飛行場航空写真 Wunderground天気予報

過去48時間のMETAR

飛行場予報(TAF)
発表時間: 7/17 15:36 ChST (7/17 05:36 UTC)
予報対象時間: 17日16時 ChST ~ 18日22時 ChST
風向・風速南東 4m/s
視程10km以上
天気現象周辺でしゅう雨
全天の4割程度の雲 雲底高度 760m
全天の4割程度の雲 雲底高度 3660m
PGUM 170536Z 1706/1812 14007KT P6SM VCSH SCT025 SCT120